Time;durP1;ratioP1;P1;durP2;ratioP2;P2;SDS_P1;SDS_P2;PMS_P1;PMS_P2;Temp;Humidity;BMP_temperature;BMP_pressure;BME280_temperature;BME280_humidity;BME280_pressure;Samples;Min_cycle;Max_cycle;Signal;HPM_P1;HPM_P2
2021/04/18 00:01:30;;;;;;;21.98;7.15;;;;;;;4.91;68.56;102290.75;5103274;28;20377;-63
2021/04/18 00:03:56;;;;;;;23.20;7.25;;;;;;;4.84;69.34;102285.22;5104685;28;20463;-63
2021/04/18 00:06:22;;;;;;;23.08;7.07;;;;;;;4.77;69.33;102283.09;5104548;28;20023;-63
2021/04/18 00:08:48;;;;;;;23.25;7.45;;;;;;;4.69;69.67;102282.72;5103346;28;20515;-63
2021/04/18 00:11:14;;;;;;;21.30;6.88;;;;;;;4.68;70.22;102286.16;5105854;28;20395;-63
2021/04/18 00:13:40;;;;;;;25.35;7.07;;;;;;;4.66;70.36;102289.50;5102372;28;20478;-63
2021/04/18 00:16:05;;;;;;;20.90;6.68;;;;;;;4.57;69.54;102286.44;5105681;28;20024;-63
2021/04/18 00:18:31;;;;;;;23.17;7.35;;;;;;;4.51;70.39;102284.38;5103027;28;20035;-63
2021/04/18 00:20:56;;;;;;;22.38;7.07;;;;;;;4.45;70.85;102287.56;5104343;28;20051;-63
2021/04/18 00:23:22;;;;;;;22.40;7.28;;;;;;;4.36;70.83;102284.50;5104159;28;20035;-63
2021/04/18 00:25:47;;;;;;;23.25;7.53;;;;;;;4.34;70.94;102281.78;5103025;28;20128;-63
2021/04/18 00:28:13;;;;;;;22.50;7.00;;;;;;;4.31;70.37;102280.72;5105278;28;20024;-63
2021/04/18 00:30:38;;;;;;;22.08;7.20;;;;;;;4.27;71.06;102278.78;5102285;28;20367;-63
2021/04/18 00:33:04;;;;;;;22.42;7.20;;;;;;;4.22;72.04;102280.25;5105197;28;20023;-63
2021/04/18 00:35:29;;;;;;;23.65;7.47;;;;;;;4.11;72.88;102283.19;5103131;28;20038;-63
2021/04/18 00:37:55;;;;;;;23.23;6.85;;;;;;;4.12;72.39;102273.59;5103945;28;20024;-63
2021/04/18 00:40:24;;;;;;;21.92;7.10;;;;;;;4.05;72.33;102268.84;5104048;28;20062;-63
2021/04/18 00:42:50;;;;;;;23.40;7.35;;;;;;;3.96;72.84;102269.25;5102548;28;20111;-64
2021/04/18 00:45:16;;;;;;;21.92;6.70;;;;;;;3.88;73.29;102270.59;5104860;28;20386;-63
2021/04/18 00:47:47;;;;;;;23.55;7.45;;;;;;;3.76;73.01;102268.19;5101380;28;20477;-64
2021/04/18 00:50:17;;;;;;;23.33;7.05;;;;;;;3.76;72.34;102269.09;5104945;27;20040;-64
2021/04/18 00:52:42;;;;;;;22.48;6.88;;;;;;;3.82;72.43;102268.53;5102012;28;20024;-64
2021/04/18 00:55:08;;;;;;;24.88;7.40;;;;;;;3.85;72.76;102268.69;5105314;28;20023;-64
2021/04/18 00:57:35;;;;;;;22.42;7.13;;;;;;;3.90;72.74;102272.44;5101792;28;20024;-64
2021/04/18 01:00:03;;;;;;;24.00;7.10;;;;;;;3.80;72.80;102265.84;5104686;28;20106;-64
2021/04/18 01:02:29;;;;;;;21.42;6.72;;;;;;;3.70;73.24;102258.28;5102802;28;20028;-64
2021/04/18 01:04:54;;;;;;;24.35;7.15;;;;;;;3.63;73.88;102262.28;5103426;28;20352;-64
2021/04/18 01:07:20;;;;;;;22.05;7.18;;;;;;;3.55;73.28;102257.44;5102656;28;20031;-63
2021/04/18 01:09:45;;;;;;;22.35;6.97;;;;;;;3.55;74.01;102257.44;5101825;28;20024;-63
2021/04/18 01:12:10;;;;;;;22.02;7.10;;;;;;;3.46;73.62;102257.81;5104970;28;20057;-63
2021/04/18 01:14:36;;;;;;;22.10;7.55;;;;;;;3.43;75.53;102255.03;5101637;28;20032;-64
2021/04/18 01:17:01;;;;;;;23.17;6.85;;;;;;;3.41;75.22;102259.31;5102311;28;20046;-63
2021/04/18 01:19:26;;;;;;;21.88;7.05;;;;;;;3.45;76.03;102251.72;5102525;28;20099;-64
2021/04/18 01:21:52;;;;;;;21.70;7.40;;;;;;;3.28;76.14;102260.31;5102817;28;20390;-63
2021/04/18 01:24:17;;;;;;;22.90;7.45;;;;;;;3.15;75.76;102261.31;5104112;28;20470;-63
2021/04/18 01:26:44;;;;;;;23.10;7.80;;;;;;;3.01;75.96;102259.63;5101405;28;20024;-62
2021/04/18 01:29:10;;;;;;;25.95;7.60;;;;;;;2.90;75.78;102251.19;5105212;28;20020;-62
2021/04/18 01:31:35;;;;;;;22.35;7.15;;;;;;;2.84;76.45;102248.19;5101303;28;20463;-62
2021/04/18 01:34:02;;;;;;;21.45;7.38;;;;;;;2.86;76.30;102251.81;5103575;28;20020;-62
2021/04/18 01:36:27;;;;;;;22.98;6.97;;;;;;;2.89;75.30;102252.00;5101430;28;20034;-62
2021/04/18 01:38:53;;;;;;;22.38;7.65;;;;;;;2.93;75.18;102253.97;5102658;28;20099;-62
2021/04/18 01:41:19;;;;;;;22.27;7.80;;;;;;;2.97;75.56;102255.91;5103788;28;20020;-62
2021/04/18 01:43:45;;;;;;;24.30;7.50;;;;;;;2.98;75.71;102252.50;5101349;28;20016;-62
2021/04/18 01:46:11;;;;;;;25.00;8.00;;;;;;;2.91;76.80;102247.75;5104431;28;20026;-61
2021/04/18 01:48:37;;;;;;;23.05;7.50;;;;;;;2.79;75.53;102250.53;5101103;28;20082;-62
2021/04/18 01:51:05;;;;;;;22.38;7.28;;;;;;;2.66;75.63;102248.03;5104051;28;20420;-62
2021/04/18 01:53:30;;;;;;;21.95;7.22;;;;;;;2.61;75.77;102245.16;5101956;28;20020;-62
2021/04/18 01:55:56;;;;;;;22.25;7.72;;;;;;;2.51;76.38;102248.03;5105528;28;20531;-62
2021/04/18 01:58:21;;;;;;;25.33;7.93;;;;;;;2.43;77.88;102250.16;5107235;27;20027;-63
2021/04/18 02:00:46;;;;;;;22.13;7.32;;;;;;;2.31;78.18;102247.72;5105629;28;20016;-62
2021/04/18 02:03:12;;;;;;;23.80;7.72;;;;;;;2.30;78.34;102243.31;5108652;28;20031;-62
2021/04/18 02:05:37;;;;;;;22.67;7.45;;;;;;;2.28;77.21;102249.25;5100615;28;20059;-63
2021/04/18 02:08:02;;;;;;;21.90;7.20;;;;;;;2.16;77.35;102245.09;5107945;28;20063;-62
2021/04/18 02:10:28;;;;;;;23.80;7.72;;;;;;;2.08;78.42;102239.41;5106421;28;20028;-63
2021/04/18 02:12:54;;;;;;;23.95;7.57;;;;;;;2.05;78.42;102240.91;5106644;28;20374;-62
2021/04/18 02:15:19;;;;;;;24.33;8.00;;;;;;;2.04;79.05;102242.63;5107460;28;20477;-62
2021/04/18 02:17:45;;;;;;;21.33;7.05;;;;;;;2.07;78.62;102242.81;5105162;28;20020;-63
2021/04/18 02:20:11;;;;;;;22.75;7.45;;;;;;;1.98;77.46;102244.88;5108004;28;20028;-64
2021/04/18 02:22:36;;;;;;;21.50;7.60;;;;;;;1.94;78.35;102235.03;5104521;28;20485;-63
2021/04/18 02:25:03;;;;;;;24.23;7.95;;;;;;;1.89;78.44;102239.06;5107326;28;20123;-63
2021/04/18 02:27:28;;;;;;;23.25;8.07;;;;;;;1.85;78.82;102232.78;5105575;28;20032;-64
2021/04/18 02:29:55;;;;;;;24.88;8.60;;;;;;;1.81;78.72;102236.00;5106030;28;20031;-64
2021/04/18 02:32:21;;;;;;;23.67;8.43;;;;;;;1.68;79.01;102234.31;5106839;28;20615;-64
2021/04/18 02:34:47;;;;;;;22.88;8.35;;;;;;;1.64;79.65;102231.44;5104658;28;20499;-64
2021/04/18 02:37:13;;;;;;;26.42;9.00;;;;;;;1.63;79.07;102227.00;5107828;27;20023;-64
2021/04/18 02:39:38;;;;;;;24.88;10.13;;;;;;;1.56;80.33;102233.56;5104175;28;20032;-64
2021/04/18 02:42:04;;;;;;;25.80;10.18;;;;;;;1.49;80.76;102232.25;5107152;28;20020;-64
2021/04/18 02:44:29;;;;;;;25.80;10.43;;;;;;;1.47;81.11;102230.34;5105521;28;20027;-64
2021/04/18 02:46:56;;;;;;;23.77;9.20;;;;;;;1.44;80.05;102231.06;5105588;28;20031;-64
2021/04/18 02:49:21;;;;;;;22.75;9.15;;;;;;;1.43;80.64;102233.56;5106599;28;20032;-64
2021/04/18 02:51:46;;;;;;;26.10;9.25;;;;;;;1.40;80.36;102231.69;5103554;28;20047;-64
2021/04/18 02:54:12;;;;;;;24.25;9.07;;;;;;;1.38;80.38;102228.97;5107509;28;20043;-64
2021/04/18 02:56:37;;;;;;;24.90;8.93;;;;;;;1.39;79.97;102227.28;5103903;28;20085;-64
2021/04/18 02:59:03;;;;;;;25.15;9.00;;;;;;;1.44;79.69;102228.44;5107017;28;20118;-63
2021/04/18 03:01:28;;;;;;;28.52;10.35;;;;;;;1.38;80.49;102223.78;5104993;28;20386;-64
2021/04/18 03:03:54;;;;;;;29.08;12.30;;;;;;;1.19;82.60;102224.31;5105145;28;20031;-63
2021/04/18 03:06:19;;;;;;;26.30;10.60;;;;;;;1.04;84.22;102233.72;5105985;28;20054;-64
2021/04/18 03:08:44;;;;;;;26.20;11.05;;;;;;;0.96;84.79;102234.91;5103823;28;20116;-64
2021/04/18 03:11:10;;;;;;;27.75;11.25;;;;;;;0.88;84.49;102231.81;5107352;28;20099;-63
2021/04/18 03:13:35;;;;;;;28.30;10.30;;;;;;;0.86;83.58;102226.50;5104376;28;20455;-63
2021/04/18 03:16:00;;;;;;;26.17;10.75;;;;;;;0.90;83.62;102231.91;5105958;28;20374;-64
2021/04/18 03:18:26;;;;;;;28.65;11.70;;;;;;;0.95;84.60;102226.19;5105557;28;20030;-63
2021/04/18 03:20:51;;;;;;;26.73;11.43;;;;;;;1.03;83.98;102234.50;5104553;28;20103;-64
2021/04/18 03:23:16;;;;;;;28.58;12.43;;;;;;;1.07;84.56;102231.31;5106402;28;20023;-63
2021/04/18 03:25:42;;;;;;;26.40;12.00;;;;;;;1.09;83.97;102224.47;5103740;28;20394;-64
2021/04/18 03:28:07;;;;;;;30.00;12.43;;;;;;;1.05;83.99;102232.94;5106957;28;20016;-64
2021/04/18 03:30:33;;;;;;;25.48;11.20;;;;;;;1.12;82.38;102226.38;5103905;28;20024;-64
2021/04/18 03:32:59;;;;;;;28.02;11.63;;;;;;;1.12;82.79;102224.72;5105476;28;20473;-64
2021/04/18 03:35:25;;;;;;;28.48;11.60;;;;;;;1.12;83.10;102231.59;5105045;28;20020;-63
2021/04/18 03:37:51;;;;;;;27.17;11.60;;;;;;;1.11;83.03;102222.00;5104127;28;20057;-63
2021/04/18 03:40:16;;;;;;;25.77;12.07;;;;;;;1.15;81.99;102227.50;5106299;28;20108;-63
2021/04/18 03:42:42;;;;;;;30.73;13.23;;;;;;;1.19;83.01;102225.97;5102879;28;20036;-63
2021/04/18 03:45:08;;;;;;;28.92;13.05;;;;;;;1.19;83.71;102223.38;5106392;28;20035;-63
2021/04/18 03:47:33;;;;;;;29.58;13.57;;;;;;;1.10;84.41;102228.00;5103556;28;20036;-63
2021/04/18 03:49:59;;;;;;;28.77;12.73;;;;;;;0.98;83.82;102220.31;5105075;28;20238;-63
2021/04/18 03:52:24;;;;;;;31.02;13.80;;;;;;;0.99;84.27;102220.41;5104978;28;20102;-63
2021/04/18 03:54:50;;;;;;;27.73;13.43;;;;;;;1.00;84.81;102222.19;5103710;28;20016;-63
2021/04/18 03:57:15;;;;;;;31.90;13.65;;;;;;;0.98;84.76;102230.72;5106106;28;20047;-63
2021/04/18 03:59:40;;;;;;;29.80;13.85;;;;;;;0.92;84.41;102230.28;5103039;28;20020;-63
2021/04/18 04:02:06;;;;;;;29.92;12.95;;;;;;;0.84;84.75;102219.38;5106157;28;20088;-63
2021/04/18 04:04:31;;;;;;;29.63;13.80;;;;;;;0.77;86.07;102225.91;5103428;28;20023;-63
2021/04/18 04:06:57;;;;;;;28.58;12.82;;;;;;;0.73;84.60;102228.19;5104551;28;20016;-63
2021/04/18 04:09:22;;;;;;;31.30;14.30;;;;;;;0.62;86.23;102228.38;5104644;28;20428;-63
2021/04/18 04:11:47;;;;;;;31.05;14.98;;;;;;;0.58;87.31;102225.47;5101501;28;20032;-63
2021/04/18 04:14:13;;;;;;;27.95;14.10;;;;;;;0.51;87.16;102226.72;5106109;28;20047;-63
2021/04/18 04:16:38;;;;;;;30.52;14.77;;;;;;;0.50;87.32;102219.75;5102567;28;20059;-63
2021/04/18 04:19:03;;;;;;;30.02;15.00;;;;;;;0.45;88.43;102227.25;5104364;28;20055;-63
2021/04/18 04:21:29;;;;;;;30.77;14.93;;;;;;;0.44;87.93;102224.56;5104124;28;20069;-64
2021/04/18 04:23:54;;;;;;;37.45;16.90;;;;;;;0.33;91.42;102223.81;5103664;28;20031;-63
2021/04/18 04:26:19;;;;;;;31.45;16.48;;;;;;;0.21;94.72;102215.19;5105162;27;20023;-63
2021/04/18 04:28:44;;;;;;;35.85;18.73;;;;;;;0.10;97.79;102217.94;5102353;28;20106;-63
2021/04/18 04:31:10;;;;;;;38.30;19.75;;;;;;;0.04;100.00;102221.81;5105680;28;20098;-63
2021/04/18 04:33:36;;;;;;;36.58;18.92;;;;;;;-0.03;100.00;102218.78;5102581;28;20103;-64
2021/04/18 04:36:02;;;;;;;37.78;19.27;;;;;;;-0.08;100.00;102222.75;5104605;28;20040;-63
2021/04/18 04:38:27;;;;;;;36.50;19.55;;;;;;;-0.08;100.00;102227.97;5103770;28;20042;-63
2021/04/18 04:40:53;;;;;;;37.78;20.77;;;;;;;-0.13;100.00;102233.63;5103169;28;20065;-63
2021/04/18 04:43:18;;;;;;;36.38;20.50;;;;;;;-0.18;100.00;102226.41;5104897;28;20133;-63
2021/04/18 04:45:43;;;;;;;37.42;19.70;;;;;;;-0.08;99.53;102233.16;5101683;28;20073;-63
2021/04/18 04:48:09;;;;;;;37.67;19.90;;;;;;;0.00;98.31;102223.31;5097667;28;20063;-63
2021/04/18 04:50:34;;;;;;;37.00;20.25;;;;;;;0.06;98.86;102235.81;5104540;28;20526;-63
2021/04/18 04:52:59;;;;;;;41.10;21.88;;;;;;;0.11;99.98;102230.13;5102961;28;20108;-63
2021/04/18 04:55:25;;;;;;;39.55;21.65;;;;;;;0.09;100.00;102233.44;5103255;28;20058;-63
2021/04/18 04:57:50;;;;;;;34.95;19.55;;;;;;;0.13;97.94;102235.44;5104100;28;20042;-63
2021/04/18 05:00:16;;;;;;;37.95;20.25;;;;;;;0.19;96.02;102230.69;5101897;28;20070;-63
2021/04/18 05:02:41;;;;;;;34.80;19.67;;;;;;;0.26;95.44;102238.13;5103384;28;20393;-63
2021/04/18 05:05:07;;;;;;;37.45;19.45;;;;;;;0.29;96.71;102225.31;5101644;28;20443;-63
2021/04/18 05:07:33;;;;;;;35.92;21.23;;;;;;;0.31;96.96;102243.63;5104209;28;20489;-64
2021/04/18 05:09:58;;;;;;;39.10;21.17;;;;;;;0.33;97.66;102236.81;5103175;28;20027;-63
2021/04/18 05:12:23;;;;;;;37.55;22.23;;;;;;;0.34;98.39;102234.31;5102603;28;20048;-63
2021/04/18 05:14:48;;;;;;;39.80;21.88;;;;;;;0.37;98.47;102228.44;5104259;28;20431;-63
2021/04/18 05:17:14;;;;;;;40.55;23.25;;;;;;;0.40;98.85;102232.94;5101247;28;20030;-64
2021/04/18 05:19:39;;;;;;;41.00;22.42;;;;;;;0.41;97.91;102229.50;5097134;28;20016;-64
2021/04/18 05:22:05;;;;;;;41.85;24.27;;;;;;;0.41;100.00;102238.25;5104256;28;20015;-64
2021/04/18 05:24:30;;;;;;;41.75;25.98;;;;;;;0.41;100.00;102235.66;5102355;28;20031;-63
2021/04/18 05:26:55;;;;;;;40.70;24.80;;;;;;;0.44;100.00;102235.84;5102721;28;20370;-63
2021/04/18 05:29:22;;;;;;;43.28;23.90;;;;;;;0.52;99.73;102239.88;5103818;28;20040;-63
2021/04/18 05:31:48;;;;;;;44.22;26.70;;;;;;;0.54;100.00;102234.78;5101864;28;20062;-63
2021/04/18 05:34:13;;;;;;;43.45;26.70;;;;;;;0.56;100.00;102234.88;5104556;28;20043;-63
2021/04/18 05:36:38;;;;;;;46.38;27.80;;;;;;;0.59;100.00;102235.97;5101725;28;20103;-64
2021/04/18 05:39:08;;;;;;;45.38;29.08;;;;;;;0.67;100.00;102234.78;5103772;28;20119;-63
2021/04/18 05:41:37;;;;;;;49.53;30.83;;;;;;;0.74;100.00;102237.78;5101757;28;20035;-64
2021/04/18 05:44:04;;;;;;;45.22;28.42;;;;;;;0.83;100.00;102236.72;5103550;28;20078;-63
2021/04/18 05:46:29;;;;;;;51.72;31.98;;;;;;;0.94;100.00;102252.16;5102315;28;20470;-63
2021/04/18 05:48:55;;;;;;;53.25;33.05;;;;;;;1.01;100.00;102247.44;5102213;28;20051;-63
2021/04/18 05:51:20;;;;;;;52.75;32.67;;;;;;;1.12;100.00;102252.44;5103798;28;20107;-63
2021/04/18 05:53:46;;;;;;;51.38;33.60;;;;;;;1.24;100.00;102255.84;5101064;28;20063;-64
2021/04/18 05:56:11;;;;;;;52.65;33.92;;;;;;;1.34;100.00;102253.03;5104750;28;20036;-63
2021/04/18 05:58:36;;;;;;;56.05;35.35;;;;;;;1.48;100.00;102250.41;5101347;28;20389;-63
2021/04/18 06:01:02;;;;;;;55.65;35.30;;;;;;;1.60;100.00;102243.34;5103318;28;20036;-63
2021/04/18 06:03:27;;;;;;;55.58;37.33;;;;;;;1.70;100.00;102243.16;5101440;28;20031;-63
2021/04/18 06:05:52;;;;;;;59.53;38.08;;;;;;;1.82;100.00;102250.84;5101768;28;20115;-63
2021/04/18 06:08:18;;;;;;;54.03;34.92;;;;;;;1.96;100.00;102248.19;5103599;28;20028;-63
2021/04/18 06:10:43;;;;;;;53.70;33.25;;;;;;;2.11;100.00;102250.81;5101220;28;20016;-64
2021/04/18 06:13:08;;;;;;;50.92;33.08;;;;;;;2.26;100.00;102250.06;5104014;28;20067;-64
2021/04/18 06:15:34;;;;;;;54.08;33.00;;;;;;;2.43;100.00;102251.06;5101474;28;20427;-63
2021/04/18 06:17:59;;;;;;;48.03;31.60;;;;;;;2.63;100.00;102243.53;5103078;28;20028;-64
2021/04/18 06:20:24;;;;;;;51.80;31.25;;;;;;;2.77;100.00;102245.22;5102752;28;20381;-63
2021/04/18 06:22:50;;;;;;;49.90;32.22;;;;;;;2.92;99.80;102239.09;5101439;28;20056;-63
2021/04/18 06:25:15;;;;;;;49.25;31.35;;;;;;;3.05;98.83;102246.81;5104241;28;20020;-63
2021/04/18 06:27:42;;;;;;;49.85;32.30;;;;;;;3.12;98.90;102242.88;5100780;28;20146;-64
2021/04/18 06:30:08;;;;;;;48.95;31.33;;;;;;;3.23;98.56;102248.69;5103633;28;20020;-63
2021/04/18 06:32:33;;;;;;;55.05;33.38;;;;;;;3.35;98.54;102246.78;5101655;28;20474;-64
2021/04/18 06:34:58;;;;;;;50.40;31.88;;;;;;;3.46;98.05;102250.88;5102410;28;20108;-64
2021/04/18 06:37:24;;;;;;;46.85;30.98;;;;;;;3.59;97.51;102254.19;5102852;28;20116;-63
2021/04/18 06:39:49;;;;;;;46.28;30.45;;;;;;;3.70;96.34;102246.91;5101337;28;20383;-64
2021/04/18 06:42:17;;;;;;;50.50;31.23;;;;;;;3.75;96.13;102240.22;5106950;28;20395;-63
2021/04/18 06:44:43;;;;;;;48.45;31.33;;;;;;;3.88;96.65;102241.81;5100203;28;20031;-64
2021/04/18 06:47:09;;;;;;;48.72;30.30;;;;;;;4.00;94.75;102237.22;5107195;28;20374;-64
2021/04/18 06:49:37;;;;;;;50.17;30.63;;;;;;;4.08;94.48;102241.16;5105037;28;20026;-64
2021/04/18 06:52:04;;;;;;;46.42;30.35;;;;;;;4.18;93.88;102238.19;5106794;28;20398;-64
2021/04/18 06:54:30;;;;;;;50.95;31.38;;;;;;;4.29;93.40;102246.59;5105752;28;20020;-66
2021/04/18 06:56:55;;;;;;;49.22;30.75;;;;;;;4.39;92.61;102242.75;5105285;28;20040;-64
2021/04/18 06:59:20;;;;;;;46.55;29.33;;;;;;;4.49;91.43;102238.91;5106921;28;20023;-64
2021/04/18 07:01:46;;;;;;;48.92;30.77;;;;;;;4.61;91.65;102244.75;5103964;28;20382;-64
2021/04/18 07:04:19;;;;;;;47.90;29.40;;;;;;;4.71;90.52;102253.97;5107290;28;20088;-64
2021/04/18 07:06:51;;;;;;;46.58;28.73;;;;;;;4.79;89.27;102252.66;5098824;28;20024;-64
2021/04/18 07:09:20;;;;;;;45.30;28.95;;;;;;;4.89;89.11;102249.69;5100658;28;20031;-64
2021/04/18 07:11:59;;;;;;;48.45;30.92;;;;;;;5.01;88.77;102256.31;5107413;27;20102;-64
2021/04/18 07:14:30;;;;;;;44.85;27.70;;;;;;;5.11;87.51;102269.09;5105096;28;20111;-64
2021/04/18 07:17:10;;;;;;;47.78;31.38;;;;;;;5.26;88.04;102265.41;5105613;28;20068;-64
2021/04/18 07:19:39;;;;;;;45.70;29.55;;;;;;;5.37;86.84;102266.81;5106347;28;20035;-64
2021/04/18 07:22:06;;;;;;;46.25;27.92;;;;;;;5.45;85.26;102261.97;5104614;28;20027;-64
2021/04/18 07:24:33;;;;;;;45.58;28.65;;;;;;;5.61;87.84;102260.94;5105580;28;20081;-64
2021/04/18 07:27:08;;;;;;;45.28;26.63;;;;;;;5.71;85.03;102260.59;5105016;28;20035;-64
2021/04/18 07:29:34;;;;;;;44.45;27.13;;;;;;;5.79;86.27;102264.44;5106197;28;20079;-64
2021/04/18 07:32:15;;;;;;;45.40;26.25;;;;;;;5.87;84.09;102270.06;5105165;28;20027;-64
2021/04/18 07:34:40;;;;;;;43.88;26.05;;;;;;;5.91;83.74;102269.34;5104953;28;20118;-64
2021/04/18 07:37:12;;;;;;;43.70;24.67;;;;;;;6.05;84.63;102264.78;5103793;28;20449;-64
2021/04/18 07:39:53;;;;;;;43.42;24.08;;;;;;;6.15;82.23;102277.50;5106641;28;20024;-64
2021/04/18 07:42:39;;;;;;;41.17;22.48;;;;;;;6.25;80.91;102269.22;5100915;28;20030;-64
2021/04/18 07:45:08;;;;;;;43.42;22.95;;;;;;;6.39;82.01;102261.94;5104182;28;20073;-64
2021/04/18 07:47:39;;;;;;;39.95;20.50;;;;;;;6.55;79.91;102267.84;5105072;28;20467;-64
2021/04/18 07:50:07;;;;;;;39.78;21.10;;;;;;;6.61;79.36;102258.53;5103764;27;20054;-64
2021/04/18 07:52:34;;;;;;;38.55;22.38;;;;;;;6.61;79.61;102263.78;5104246;28;20435;-64
2021/04/18 07:55:00;;;;;;;41.75;23.92;;;;;;;6.71;79.39;102254.53;5104577;27;20035;-64
2021/04/18 07:57:26;;;;;;;41.83;24.50;;;;;;;6.83;79.00;102255.91;5104308;28;20028;-64
2021/04/18 07:59:51;;;;;;;39.40;23.52;;;;;;;6.94;78.88;102252.00;5105795;28;20101;-64
2021/04/18 08:02:20;;;;;;;39.42;23.27;;;;;;;7.18;77.36;102243.31;5102820;28;20536;-64
2021/04/18 08:04:48;;;;;;;40.58;22.40;;;;;;;7.74;75.68;102238.50;5105832;28;20538;-64
2021/04/18 08:07:14;;;;;;;36.10;20.10;;;;;;;8.29;72.24;102240.53;5099145;28;20447;-64
2021/04/18 08:09:40;;;;;;;34.53;18.02;;;;;;;8.77;70.45;102244.00;5106031;28;20028;-64
2021/04/18 08:12:05;;;;;;;37.10;16.60;;;;;;;9.25;68.13;102241.19;5103363;28;20030;-62
2021/04/18 08:14:31;;;;;;;31.85;14.10;;;;;;;9.71;65.39;102229.41;5104507;28;20025;-62
2021/04/18 08:17:05;;;;;;;28.25;13.18;;;;;;;10.04;65.22;102231.22;5103061;28;20024;-62
2021/04/18 08:19:31;;;;;;;27.77;12.73;;;;;;;10.51;61.58;102216.66;5104325;28;20032;-62
2021/04/18 08:21:57;;;;;;;30.17;13.75;;;;;;;10.80;60.98;102213.03;5104711;28;20025;-62
2021/04/18 08:24:22;;;;;;;27.90;12.73;;;;;;;11.11;58.33;102211.13;5103194;28;20024;-62
2021/04/18 08:27:11;;;;;;;27.35;11.77;;;;;;;11.24;58.85;102209.69;5105510;27;20038;-62
2021/04/18 08:29:58;;;;;;;28.23;12.48;;;;;;;11.56;57.83;102211.25;5104836;28;20077;-61
2021/04/18 08:32:43;;;;;;;27.13;11.75;;;;;;;11.56;56.80;102201.53;5100349;28;20028;-62
2021/04/18 08:35:16;;;;;;;26.80;10.45;;;;;;;11.94;52.61;102204.16;5102481;28;20112;-62
2021/04/18 08:37:42;;;;;;;26.83;10.98;;;;;;;12.35;50.91;102209.38;5097653;28;20024;-62
2021/04/18 08:40:08;;;;;;;27.52;11.02;;;;;;;12.72;48.10;102212.66;5105262;28;20028;-62
2021/04/18 08:42:34;;;;;;;22.55;7.80;;;;;;;12.97;45.08;102212.19;5096450;28;20064;-63
2021/04/18 08:45:00;;;;;;;23.02;8.52;;;;;;;12.90;45.38;102206.78;5101611;28;20444;-62
2021/04/18 08:47:30;;;;;;;23.67;9.20;;;;;;;13.02;46.62;102210.53;5105384;28;20077;-63
2021/04/18 08:50:07;;;;;;;24.80;9.68;;;;;;;13.54;47.25;102221.97;5097884;28;20039;-63
2021/04/18 08:52:35;;;;;;;23.40;9.27;;;;;;;14.38;44.40;102228.28;5099210;28;20056;-63
2021/04/18 08:55:09;;;;;;;24.50;9.20;;;;;;;14.93;43.29;102239.47;5104886;28;20035;-63
2021/04/18 08:57:35;;;;;;;25.33;9.90;;;;;;;15.40;42.21;102245.16;5102675;28;20016;-63
2021/04/18 09:00:15;;;;;;;23.10;8.98;;;;;;;15.71;39.58;102245.31;5105167;28;20035;-62
2021/04/18 09:02:41;;;;;;;23.83;8.70;;;;;;;16.12;38.74;102239.28;5103140;28;20032;-62
2021/04/18 09:05:13;;;;;;;23.10;9.10;;;;;;;16.27;39.03;102244.69;5103872;28;20031;-63
2021/04/18 09:07:43;;;;;;;25.55;9.23;;;;;;;16.64;38.40;102247.41;5102838;28;20028;-63
2021/04/18 09:10:10;;;;;;;23.50;9.70;;;;;;;16.99;37.14;102243.91;5104233;28;20027;-63
2021/04/18 09:12:36;;;;;;;21.48;8.48;;;;;;;17.16;35.92;102246.59;5102170;28;20056;-63
2021/04/18 09:15:07;;;;;;;22.15;7.82;;;;;;;17.33;33.96;102237.66;5105143;28;20157;-63
2021/04/18 09:17:33;;;;;;;21.42;7.55;;;;;;;17.32;33.76;102241.25;5101900;28;20100;-63
2021/04/18 09:20:01;;;;;;;21.73;7.60;;;;;;;16.84;34.16;102243.91;5104930;28;20027;-63
2021/04/18 09:22:31;;;;;;;21.13;7.50;;;;;;;15.99;36.50;102244.59;5097300;28;20111;-63
2021/04/18 09:25:00;;;;;;;19.63;6.25;;;;;;;15.50;35.60;102246.97;5097359;28;20028;-63
2021/04/18 09:27:31;;;;;;;20.27;7.15;;;;;;;15.79;37.30;102235.63;5097234;28;20020;-63
2021/04/18 09:30:03;;;;;;;22.77;8.27;;;;;;;16.58;36.47;102230.53;5104693;28;20085;-63
2021/04/18 09:32:31;;;;;;;20.00;7.03;;;;;;;17.19;34.43;102224.31;5090998;28;20687;-62
2021/04/18 09:34:57;;;;;;;20.38;7.00;;;;;;;17.29;33.07;102223.41;5095624;28;20534;-63
2021/04/18 09:38:01;;;;;;;22.13;6.93;;;;;;;17.26;33.05;102220.75;5097594;28;20095;-63
2021/04/18 09:40:34;;;;;;;19.85;6.00;;;;;;;17.22;32.37;102221.66;5098908;28;20160;-63
2021/04/18 09:43:01;;;;;;;20.20;6.88;;;;;;;17.24;31.81;102218.09;5098054;28;20024;-63
2021/04/18 09:45:29;;;;;;;20.58;7.10;;;;;;;17.82;31.12;102221.47;5101190;28;20027;-62
2021/04/18 09:47:57;;;;;;;19.58;6.35;;;;;;;18.09;29.31;102215.13;5095947;28;20487;-62
2021/04/18 09:50:31;;;;;;;17.92;5.10;;;;;;;18.12;29.93;102224.94;5100134;28;20186;-62
2021/04/18 09:53:15;;;;;;;18.55;6.15;;;;;;;19.02;30.34;102216.28;5101536;28;20543;-62
2021/04/18 09:55:54;;;;;;;20.35;6.70;;;;;;;19.99;29.78;102209.88;5100440;28;20036;-62
2021/04/18 09:58:40;;;;;;;19.73;7.18;;;;;;;20.74;28.91;102210.59;5094613;28;20023;-62
2021/04/18 10:01:26;;;;;;;20.10;6.32;;;;;;;21.36;27.71;102204.09;5099576;28;20088;-62
2021/04/18 10:03:52;;;;;;;20.48;6.63;;;;;;;22.05;25.45;102197.31;5095662;28;20463;-62
2021/04/18 10:06:18;;;;;;;21.65;6.95;;;;;;;22.69;25.54;102201.22;5097392;28;20032;-62
2021/04/18 10:09:12;;;;;;;20.17;6.95;;;;;;;23.03;25.78;102206.63;5096932;28;20032;-62
2021/04/18 10:11:38;;;;;;;21.05;7.30;;;;;;;22.43;24.89;102197.38;5051246;28;20053;-63
2021/04/18 10:14:04;;;;;;;20.50;7.65;;;;;;;22.82;25.05;102197.31;5051025;28;20029;-62
2021/04/18 10:16:40;;;;;;;21.70;7.55;;;;;;;23.36;24.25;102197.69;5052553;28;20174;-62
2021/04/18 10:19:18;;;;;;;19.90;6.78;;;;;;;23.72;23.85;102205.66;5061500;28;20032;-62
2021/04/18 10:22:08;;;;;;;20.75;6.88;;;;;;;24.22;24.54;102199.66;5063272;28;20045;-62
2021/04/18 10:24:49;;;;;;;19.13;7.10;;;;;;;24.53;24.00;102197.75;5058550;28;20043;-63
2021/04/18 10:27:16;;;;;;;19.20;6.32;;;;;;;24.93;21.58;102206.38;5063750;28;20047;-63
2021/04/18 10:29:43;;;;;;;20.83;7.05;;;;;;;25.22;21.73;102193.63;5062840;28;20152;-63
2021/04/18 10:32:09;;;;;;;20.08;6.93;;;;;;;24.53;22.15;102197.75;5064372;28;20074;-63
2021/04/18 10:34:34;;;;;;;20.55;6.82;;;;;;;24.69;21.60;102198.16;5061723;28;20434;-63
2021/04/18 10:37:01;;;;;;;21.20;7.72;;;;;;;24.28;21.22;102188.69;5065278;28;20082;-63
2021/04/18 10:39:27;;;;;;;20.70;7.25;;;;;;;24.14;22.64;102181.88;5061924;28;20025;-63
2021/04/18 10:41:53;;;;;;;18.80;6.00;;;;;;;24.40;22.02;102187.41;5064508;28;20041;-63
2021/04/18 10:44:18;;;;;;;13.20;3.92;;;;;;;24.67;18.03;102177.53;5062639;28;20033;-63
2021/04/18 10:47:05;;;;;;;12.80;3.75;;;;;;;25.16;17.46;102180.31;5063173;28;20029;-63
2021/04/18 10:49:31;;;;;;;14.95;4.40;;;;;;;25.49;17.79;102182.78;5099727;28;20115;-64
2021/04/18 10:51:58;;;;;;;17.50;5.05;;;;;;;25.93;18.97;102185.59;5107582;28;20023;-63
2021/04/18 10:54:24;;;;;;;13.50;3.50;;;;;;;26.50;15.12;102179.72;5104546;28;20032;-64
2021/04/18 10:56:51;;;;;;;16.15;4.25;;;;;;;26.98;16.25;102181.31;5106191;28;20028;-63
2021/04/18 10:59:17;;;;;;;18.92;6.15;;;;;;;26.40;17.16;102171.97;5105673;28;20027;-63
2021/04/18 11:01:43;;;;;;;18.00;5.55;;;;;;;26.46;18.38;102165.44;5105324;28;20114;-64
2021/04/18 11:04:10;;;;;;;16.77;4.85;;;;;;;26.15;16.69;102169.38;5106613;28;20034;-63
2021/04/18 11:06:36;;;;;;;17.85;5.35;;;;;;;25.20;19.28;102166.63;5104212;28;20016;-64
2021/04/18 11:09:01;;;;;;;19.60;6.18;;;;;;;25.74;18.79;102161.06;5107263;28;20039;-63
2021/04/18 11:11:27;;;;;;;19.02;6.32;;;;;;;26.32;17.57;102160.56;5103844;28;20020;-64
2021/04/18 11:13:52;;;;;;;19.45;6.07;;;;;;;26.41;18.65;102160.19;5106165;28;20031;-63
2021/04/18 11:16:18;;;;;;;20.42;6.00;;;;;;;26.16;18.59;102157.59;5105297;28;20043;-63
2021/04/18 11:18:44;;;;;;;19.77;6.40;;;;;;;26.50;18.78;102153.47;5105374;28;20020;-63